Time;durP1;ratioP1;P1;durP2;ratioP2;P2;SDS_P1;SDS_P2;PMS_P1;PMS_P2;Temp;Humidity;BMP_temperature;BMP_pressure;BME280_temperature;BME280_humidity;BME280_pressure;Samples;Min_cycle;Max_cycle;Signal;HPM_P1;HPM_P2
2023/03/22 00:00:21;;;;;;;18.23;7.65;;;;;;;;;;5006427;28;20054;-81
2023/03/22 00:02:55;;;;;;;19.67;8.15;;;;;;;;;;5009425;28;20050;-81
2023/03/22 00:05:22;;;;;;;18.17;7.30;;;;;;;;;;5009677;28;20050;-81
2023/03/22 00:07:56;;;;;;;14.82;7.50;;;;;;;;;;5003175;28;20050;-81
2023/03/22 00:10:26;;;;;;;17.08;7.82;;;;;;;;;;5008377;28;20054;-81
2023/03/22 00:13:00;;;;;;;13.30;7.78;;;;;;;;;;5002613;28;20409;-81
2023/03/22 00:15:33;;;;;;;12.50;7.28;;;;;;;;;;5008686;28;20070;-81
2023/03/22 00:18:02;;;;;;;11.30;6.47;;;;;;;;;;5003564;28;20397;-81
2023/03/22 00:20:36;;;;;;;18.70;7.30;;;;;;;;;;5014123;28;20058;-81
2023/03/22 00:23:09;;;;;;;14.85;6.93;;;;;;;;;;5004772;28;20433;-81
2023/03/22 00:25:43;;;;;;;13.30;7.28;;;;;;;;;;5009232;28;20054;-81
2023/03/22 00:28:17;;;;;;;14.82;7.45;;;;;;;;;;5002195;28;20076;-81
2023/03/22 00:30:50;;;;;;;15.57;6.95;;;;;;;;;;4997952;28;20065;-81
2023/03/22 00:33:27;;;;;;;14.15;7.30;;;;;;;;;;5000868;28;20057;-81
2023/03/22 00:36:00;;;;;;;16.10;7.65;;;;;;;;;;5001910;28;20457;-81
2023/03/22 00:38:36;;;;;;;14.07;6.53;;;;;;;;;;5008544;28;20051;-81
2023/03/22 00:41:09;;;;;;;12.40;7.05;;;;;;;;;;4999686;28;20054;-81
2023/03/22 00:43:46;;;;;;;18.00;6.85;;;;;;;;;;5003016;28;20034;-81
2023/03/22 00:46:20;;;;;;;13.18;7.07;;;;;;;;;;5003311;28;20061;-81
2023/03/22 00:48:53;;;;;;;17.85;7.38;;;;;;;;;;5002447;28;20053;-81
2023/03/22 00:51:21;;;;;;;19.40;7.93;;;;;;;;;;5007714;28;20063;-81
2023/03/22 00:53:51;;;;;;;16.50;8.25;;;;;;;;;;5002185;28;20058;-81
2023/03/22 00:56:24;;;;;;;20.67;8.35;;;;;;;;;;5007096;28;20494;-81
2023/03/22 00:59:02;;;;;;;18.92;8.18;;;;;;;;;;5007241;28;20410;-81
2023/03/22 01:01:30;;;;;;;16.15;8.18;;;;;;;;;;5016026;28;20376;-82
2023/03/22 01:04:03;;;;;;;16.63;8.45;;;;;;;;;;5015799;28;20060;-82
2023/03/22 01:06:36;;;;;;;18.77;8.52;;;;;;;;;;5016941;28;20521;-81
2023/03/22 01:09:13;;;;;;;16.80;8.73;;;;;;;;;;5018501;28;20054;-81
2023/03/22 01:11:46;;;;;;;14.98;8.32;;;;;;;;;;4998858;28;20053;-81
2023/03/22 01:14:20;;;;;;;16.88;8.43;;;;;;;;;;5001355;28;20046;-82
2023/03/22 01:16:48;;;;;;;23.55;8.65;;;;;;;;;;5005672;28;20050;-81
2023/03/22 01:19:21;;;;;;;19.15;9.05;;;;;;;;;;5001824;28;20406;-81
2023/03/22 01:21:54;;;;;;;22.42;10.13;;;;;;;;;;5003041;28;20033;-82
2023/03/22 01:24:27;;;;;;;15.77;8.77;;;;;;;;;;5018001;28;20045;-81
2023/03/22 01:26:55;;;;;;;18.48;8.35;;;;;;;;;;4998950;28;20042;-81
2023/03/22 01:29:25;;;;;;;15.20;8.82;;;;;;;;;;5004310;28;20049;-81
2023/03/22 01:31:58;;;;;;;15.20;8.23;;;;;;;;;;5002963;28;20077;-82
2023/03/22 01:34:30;;;;;;;18.52;9.38;;;;;;;;;;5005256;28;20050;-82
2023/03/22 01:37:04;;;;;;;25.15;9.38;;;;;;;;;;5023359;28;20054;-81
2023/03/22 01:39:42;;;;;;;19.33;8.45;;;;;;;;;;5021971;28;20058;-81
2023/03/22 01:42:17;;;;;;;18.45;9.18;;;;;;;;;;5002040;28;20914;-81
2023/03/22 01:45:10;;;;;;;17.58;9.23;;;;;;;;;;5012067;28;20066;-81
2023/03/22 01:47:47;;;;;;;13.85;8.45;;;;;;;;;;5012434;28;20053;-81
2023/03/22 01:50:16;;;;;;;20.38;9.32;;;;;;;;;;5004843;28;20052;-81
2023/03/22 01:52:50;;;;;;;20.15;8.90;;;;;;;;;;5003701;28;20065;-81
2023/03/22 01:55:24;;;;;;;18.45;9.85;;;;;;;;;;5020773;28;20062;-82
2023/03/22 01:58:05;;;;;;;17.25;9.70;;;;;;;;;;5022308;28;20387;-81
2023/03/22 02:00:46;;;;;;;17.92;10.10;;;;;;;;;;5011710;28;20057;-82
2023/03/22 02:03:30;;;;;;;19.42;9.18;;;;;;;;;;5010543;28;20429;-81
2023/03/22 02:06:03;;;;;;;15.48;8.60;;;;;;;;;;5017987;28;20099;-81
2023/03/22 02:08:39;;;;;;;22.95;8.60;;;;;;;;;;5011333;28;20046;-81
2023/03/22 02:11:17;;;;;;;22.17;9.20;;;;;;;;;;5002460;28;20054;-81
2023/03/22 02:14:02;;;;;;;17.23;9.57;;;;;;;;;;5011095;28;20458;-81
2023/03/22 02:17:24;;;;;;;13.93;8.43;;;;;;;;;;5007055;28;20065;-81
2023/03/22 02:20:14;;;;;;;15.68;8.43;;;;;;;;;;5018567;28;20395;-81
2023/03/22 02:23:05;;;;;;;20.88;9.05;;;;;;;;;;5011757;28;20042;-81
2023/03/22 02:25:54;;;;;;;16.33;8.40;;;;;;;;;;5010585;28;20062;-81
2023/03/22 02:28:30;;;;;;;16.88;8.95;;;;;;;;;;5005064;28;20054;-81
2023/03/22 02:31:03;;;;;;;15.57;8.77;;;;;;;;;;5004414;28;20053;-81
2023/03/22 02:33:45;;;;;;;14.05;8.57;;;;;;;;;;5021095;28;20042;-81
2023/03/22 02:36:13;;;;;;;;;;;;;;;;;;5001439;28;20394;-81
2023/03/22 02:39:07;;;;;;;13.35;7.72;;;;;;;;;;5000383;28;20285;-81
2023/03/22 02:41:42;;;;;;;19.00;8.80;;;;;;;;;;5005301;28;20042;-81
2023/03/22 02:44:21;;;;;;;18.13;9.18;;;;;;;;;;5005592;28;20045;-81
2023/03/22 02:46:59;;;;;;;14.60;8.45;;;;;;;;;;5018759;28;20513;-81
2023/03/22 02:49:34;;;;;;;16.92;8.85;;;;;;;;;;5020081;28;20063;-82
2023/03/22 02:52:05;;;;;;;18.63;8.95;;;;;;;;;;5010922;28;20057;-82
2023/03/22 02:54:38;;;;;;;14.73;8.40;;;;;;;;;;5009275;28;20053;-81
2023/03/22 02:57:13;;;;;;;15.77;9.07;;;;;;;;;;5019920;28;20054;-82
2023/03/22 02:59:46;;;;;;;20.88;9.35;;;;;;;;;;5019539;28;20049;-81
2023/03/22 03:02:21;;;;;;;16.25;8.77;;;;;;;;;;5001484;28;20038;-81
2023/03/22 03:04:50;;;;;;;18.90;9.07;;;;;;;;;;5019488;28;20495;-81
2023/03/22 03:07:26;;;;;;;13.65;7.25;;;;;;;;;;5005724;28;20054;-82
2023/03/22 03:10:01;;;;;;;22.67;9.95;;;;;;;;;;5014948;28;20054;-82
2023/03/22 03:12:33;;;;;;;17.45;9.07;;;;;;;;;;5002656;28;20988;-81
2023/03/22 03:15:12;;;;;;;19.63;8.73;;;;;;;;;;5002866;28;20414;-81
2023/03/22 03:17:51;;;;;;;18.80;10.05;;;;;;;;;;5000908;28;20580;-81
2023/03/22 03:20:29;;;;;;;18.35;8.35;;;;;;;;;;5009587;28;20061;-82
2023/03/22 03:23:12;;;;;;;19.88;8.00;;;;;;;;;;5019923;28;20054;-81
2023/03/22 03:25:45;;;;;;;16.73;8.55;;;;;;;;;;5010653;28;20057;-81
2023/03/22 03:28:29;;;;;;;13.30;7.82;;;;;;;;;;5002866;28;20073;-81
2023/03/22 03:31:05;;;;;;;14.68;8.10;;;;;;;;;;5021027;28;20054;-81
2023/03/22 03:33:34;;;;;;;17.67;7.75;;;;;;;;;;5019492;28;20051;-82
2023/03/22 03:36:07;;;;;;;13.05;7.38;;;;;;;;;;4999597;28;20058;-82
2023/03/22 03:38:42;;;;;;;17.17;7.75;;;;;;;;;;5003930;28;20422;-81
2023/03/22 03:41:17;;;;;;;15.43;8.48;;;;;;;;;;5010241;28;20061;-82
2023/03/22 03:43:51;;;;;;;13.48;7.82;;;;;;;;;;5009915;28;20141;-81
2023/03/22 03:46:24;;;;;;;14.82;7.72;;;;;;;;;;5005665;28;20054;-81
2023/03/22 03:48:58;;;;;;;14.30;8.25;;;;;;;;;;5004803;28;20041;-81
2023/03/22 03:51:32;;;;;;;16.48;8.18;;;;;;;;;;5017125;28;20062;-81
2023/03/22 03:54:00;;;;;;;16.60;7.97;;;;;;;;;;5019740;28;20394;-81
2023/03/22 03:56:28;;;;;;;;;;;;;;;;;;5004924;28;20042;-82
2023/03/22 03:58:58;;;;;;;14.55;7.20;;;;;;;;;;4999553;28;20289;-82
2023/03/22 04:01:31;;;;;;;16.85;7.68;;;;;;;;;;5020780;28;20046;-81
2023/03/22 04:04:09;;;;;;;12.93;7.13;;;;;;;;;;5017838;28;20050;-81
2023/03/22 04:06:48;;;;;;;14.57;7.93;;;;;;;;;;5008981;28;20057;-81
2023/03/22 04:09:20;;;;;;;17.02;7.70;;;;;;;;;;5008737;28;20411;-82
2023/03/22 04:11:57;;;;;;;15.27;8.27;;;;;;;;;;5009054;28;20049;-82
2023/03/22 04:14:31;;;;;;;15.63;7.18;;;;;;;;;;5009545;28;20038;-81
2023/03/22 04:17:12;;;;;;;16.60;8.07;;;;;;;;;;5001601;28;20050;-81
2023/03/22 04:19:45;;;;;;;16.63;7.60;;;;;;;;;;5008792;28;20076;-82
2023/03/22 04:22:18;;;;;;;13.02;7.30;;;;;;;;;;5017059;28;20058;-81
2023/03/22 04:24:51;;;;;;;16.77;7.65;;;;;;;;;;5016504;28;20053;-82
2023/03/22 04:27:25;;;;;;;12.40;6.53;;;;;;;;;;5003111;28;20134;-82
2023/03/22 04:30:10;;;;;;;14.70;7.95;;;;;;;;;;5019525;28;20061;-81
2023/03/22 04:33:05;;;;;;;13.73;6.78;;;;;;;;;;5009238;28;20065;-81
2023/03/22 04:36:09;;;;;;;17.73;8.02;;;;;;;;;;4997298;28;20050;-81
2023/03/22 04:38:55;;;;;;;19.92;8.77;;;;;;;;;;5008275;28;20061;-81
2023/03/22 04:41:29;;;;;;;17.27;8.45;;;;;;;;;;5015942;28;20495;-81
2023/03/22 04:44:02;;;;;;;14.27;7.20;;;;;;;;;;5008156;28;20065;-81
2023/03/22 04:46:42;;;;;;;16.45;7.18;;;;;;;;;;5009222;28;20054;-81
2023/03/22 04:49:15;;;;;;;14.27;6.72;;;;;;;;;;5017153;28;20061;-81
2023/03/22 04:51:48;;;;;;;12.98;7.13;;;;;;;;;;5020318;28;20046;-81
2023/03/22 04:54:41;;;;;;;15.80;7.30;;;;;;;;;;5003318;28;20058;-81
2023/03/22 04:57:14;;;;;;;14.75;7.20;;;;;;;;;;5017710;28;20401;-81
2023/03/22 04:59:48;;;;;;;12.98;7.20;;;;;;;;;;5018928;28;20388;-81
2023/03/22 05:02:16;;;;;;;;;;;;;;;;;;5007534;28;20057;-82
2023/03/22 05:04:46;;;;;;;10.93;5.78;;;;;;;;;;5018425;28;19925;-81
2023/03/22 05:07:32;;;;;;;11.20;6.43;;;;;;;;;;4980296;28;20312;-81
2023/03/22 05:10:06;;;;;;;12.32;6.60;;;;;;;;;;4988077;28;20051;-81
2023/03/22 05:12:40;;;;;;;15.88;6.57;;;;;;;;;;4981966;28;20050;-81
2023/03/22 05:15:17;;;;;;;16.98;6.47;;;;;;;;;;4988490;28;20387;-82
2023/03/22 05:17:47;;;;;;;11.55;6.28;;;;;;;;;;4988132;28;20065;-81
2023/03/22 05:20:21;;;;;;;11.27;5.85;;;;;;;;;;4981187;28;20054;-81
2023/03/22 05:23:09;;;;;;;15.82;5.85;;;;;;;;;;4997962;28;20594;-81
2023/03/22 05:25:45;;;;;;;18.35;6.30;;;;;;;;;;4988233;28;20057;-81
2023/03/22 05:28:20;;;;;;;10.38;5.38;;;;;;;;;;4988743;28;20055;-82
2023/03/22 05:31:20;;;;;;;10.80;5.78;;;;;;;;;;4985389;28;20061;-81
2023/03/22 05:33:57;;;;;;;14.52;6.38;;;;;;;;;;4996742;28;20054;-81
2023/03/22 05:36:35;;;;;;;13.65;5.70;;;;;;;;;;4982251;28;20055;-81
2023/03/22 05:39:23;;;;;;;12.35;5.40;;;;;;;;;;4988278;28;20062;-82
2023/03/22 05:41:57;;;;;;;11.80;6.03;;;;;;;;;;4998708;28;20042;-81
2023/03/22 05:44:31;;;;;;;10.50;6.03;;;;;;;;;;4987272;28;20050;-81
2023/03/22 05:47:08;;;;;;;12.60;5.85;;;;;;;;;;4987001;28;20054;-81
2023/03/22 05:49:56;;;;;;;10.75;5.85;;;;;;;;;;4996668;28;20434;-81
2023/03/22 05:52:32;;;;;;;14.48;5.50;;;;;;;;;;4987590;28;20054;-81
2023/03/22 05:55:25;;;;;;;11.63;6.13;;;;;;;;;;4983318;28;20050;-82
2023/03/22 05:58:00;;;;;;;11.25;5.55;;;;;;;;;;4997718;28;20042;-82
2023/03/22 06:00:37;;;;;;;13.90;5.95;;;;;;;;;;4979186;28;20434;-81
2023/03/22 06:03:32;;;;;;;10.43;6.00;;;;;;;;;;4978771;28;20062;-81
2023/03/22 06:06:19;;;;;;;11.10;5.32;;;;;;;;;;4981828;28;20514;-81
2023/03/22 06:09:05;;;;;;;11.82;6.03;;;;;;;;;;4985763;28;20054;-81
2023/03/22 06:11:34;;;;;;;10.70;4.85;;;;;;;;;;4980895;28;21635;-82
2023/03/22 06:14:07;;;;;;;12.00;5.97;;;;;;;;;;4983128;28;20065;-81
2023/03/22 06:17:05;;;;;;;8.82;4.75;;;;;;;;;;4971806;28;20059;-82
2023/03/22 06:19:39;;;;;;;18.65;4.93;;;;;;;;;;4992101;28;20383;-81
2023/03/22 06:22:13;;;;;;;9.57;5.18;;;;;;;;;;4990944;28;20510;-82
2023/03/22 06:24:42;;;;;;;10.55;5.30;;;;;;;;;;4984159;28;20050;-82
2023/03/22 06:27:21;;;;;;;10.77;5.43;;;;;;;;;;4984542;28;20050;-82
2023/03/22 06:29:54;;;;;;;9.90;4.88;;;;;;;;;;4991347;28;20046;-82
2023/03/22 06:32:25;;;;;;;11.18;5.40;;;;;;;;;;5001870;28;20061;-81
2023/03/22 06:34:58;;;;;;;10.90;4.78;;;;;;;;;;4999855;28;20054;-82
2023/03/22 06:37:27;;;;;;;8.80;4.88;;;;;;;;;;4998490;28;20046;-82
2023/03/22 06:39:57;;;;;;;9.80;5.28;;;;;;;;;;4997947;28;20050;-81
2023/03/22 06:42:25;;;;;;;18.27;5.35;;;;;;;;;;4983521;28;20062;-82
2023/03/22 06:45:06;;;;;;;11.70;4.47;;;;;;;;;;4998110;28;20070;-82
2023/03/22 06:47:40;;;;;;;17.67;5.95;;;;;;;;;;5000098;28;20077;-81
2023/03/22 06:50:36;;;;;;;10.07;4.80;;;;;;;;;;4986002;28;20065;-82
2023/03/22 06:53:12;;;;;;;11.43;4.68;;;;;;;;;;4983538;28;20072;-82
2023/03/22 06:55:46;;;;;;;10.75;4.88;;;;;;;;;;4987358;28;20066;-81
2023/03/22 06:58:23;;;;;;;8.05;4.25;;;;;;;;;;4999499;28;20054;-82
2023/03/22 07:00:51;;;;;;;14.60;5.22;;;;;;;;;;5000286;28;20058;-82
2023/03/22 07:03:25;;;;;;;8.95;4.65;;;;;;;;;;4998773;28;20093;-82
2023/03/22 07:06:05;;;;;;;11.10;5.05;;;;;;;;;;4990196;28;20499;-82
2023/03/22 07:08:41;;;;;;;8.75;4.93;;;;;;;;;;4985195;28;20043;-81
2023/03/22 07:11:13;;;;;;;10.32;4.72;;;;;;;;;;4999498;28;20046;-81
2023/03/22 07:13:52;;;;;;;9.07;4.13;;;;;;;;;;4982855;28;20523;-82
2023/03/22 07:16:28;;;;;;;10.98;5.00;;;;;;;;;;5002619;28;20059;-82
2023/03/22 07:19:03;;;;;;;10.05;4.43;;;;;;;;;;4985058;28;20387;-81
2023/03/22 07:21:31;;;;;;;9.40;5.10;;;;;;;;;;4985188;28;20046;-81
2023/03/22 07:24:10;;;;;;;10.68;5.00;;;;;;;;;;4998710;28;20054;-81
2023/03/22 07:26:46;;;;;;;14.43;6.88;;;;;;;;;;4988694;28;20047;-81
2023/03/22 07:29:23;;;;;;;11.00;5.07;;;;;;;;;;4998698;28;20057;-81
2023/03/22 07:31:51;;;;;;;12.73;5.38;;;;;;;;;;4998180;28;20050;-81
2023/03/22 07:34:37;;;;;;;8.40;4.93;;;;;;;;;;4999489;28;20046;-81
2023/03/22 07:37:09;;;;;;;9.25;4.82;;;;;;;;;;4997011;28;20414;-81
2023/03/22 07:39:41;;;;;;;11.07;4.70;;;;;;;;;;4996824;28;20061;-81
2023/03/22 07:42:16;;;;;;;12.95;5.80;;;;;;;;;;4992348;28;20070;-80
2023/03/22 07:45:08;;;;;;;12.65;5.68;;;;;;;;;;4994604;28;20058;-80
2023/03/22 07:47:44;;;;;;;15.38;5.60;;;;;;;;;;4988216;28;20057;-81
2023/03/22 07:50:40;;;;;;;12.45;5.82;;;;;;;;;;4977788;28;20196;-80
2023/03/22 07:53:10;;;;;;;12.65;6.30;;;;;;;;;;4985827;28;20054;-81
2023/03/22 07:55:38;;;;;;;14.70;5.93;;;;;;;;;;4983865;28;20054;-81
2023/03/22 07:58:12;;;;;;;11.30;6.03;;;;;;;;;;4997653;28;20054;-83
2023/03/22 08:00:48;;;;;;;12.65;6.28;;;;;;;;;;4994765;28;20061;-81
2023/03/22 08:03:48;;;;;;;11.35;6.10;;;;;;;;;;4980671;28;20062;-81
2023/03/22 08:06:50;;;;;;;11.85;5.50;;;;;;;;;;4982525;28;20066;-80
2023/03/22 08:09:23;;;;;;;14.88;6.22;;;;;;;;;;4995462;28;20529;-82
2023/03/22 08:11:51;;;;;;;12.23;6.10;;;;;;;;;;4983205;28;20051;-82
2023/03/22 08:14:25;;;;;;;14.60;6.07;;;;;;;;;;4986740;28;20054;-82
2023/03/22 08:16:58;;;;;;;11.50;5.63;;;;;;;;;;4996395;28;20054;-83
2023/03/22 08:19:26;;;;;;;13.80;5.80;;;;;;;;;;4975435;28;20609;-82
2023/03/22 08:21:54;;;;;;;11.85;5.20;;;;;;;;;;4965376;28;20066;-81
2023/03/22 08:24:47;;;;;;;13.05;6.22;;;;;;;;;;4960062;28;20058;-82
2023/03/22 08:27:26;;;;;;;12.93;6.45;;;;;;;;;;4948005;28;20539;-82
2023/03/22 08:29:57;;;;;;;14.07;6.05;;;;;;;;;;4974294;28;20046;-82
2023/03/22 08:32:25;;;;;;;12.40;6.07;;;;;;;;;;4954654;28;20785;-82
2023/03/22 08:34:58;;;;;;;10.82;5.68;;;;;;;;;;4954065;28;20069;-82
2023/03/22 08:37:30;;;;;;;13.52;5.85;;;;;;;;;;4950338;28;21737;-82
2023/03/22 08:40:08;;;;;;;17.90;6.30;;;;;;;;;;4950346;28;20062;-82
2023/03/22 08:42:43;;;;;;;11.55;5.95;;;;;;;;;;4951257;28;20047;-83
2023/03/22 08:45:13;;;;;;;14.73;6.43;;;;;;;;;;4956362;28;20062;-81
2023/03/22 08:47:55;;;;;;;16.45;6.72;;;;;;;;;;4953534;28;20058;-81
2023/03/22 08:50:33;;;;;;;13.50;6.97;;;;;;;;;;4958686;28;20062;-82
2023/03/22 08:53:12;;;;;;;11.60;6.82;;;;;;;;;;4979365;28;20077;-81
2023/03/22 08:55:52;;;;;;;12.70;6.22;;;;;;;;;;4963723;28;20050;-80
2023/03/22 08:58:41;;;;;;;10.68;6.07;;;;;;;;;;4959116;28;20066;-82
2023/03/22 09:01:31;;;;;;;12.60;6.47;;;;;;;;;;4953322;28;20711;-81
2023/03/22 09:04:05;;;;;;;14.65;7.60;;;;;;;;;;4964629;28;20069;-81
2023/03/22 09:06:41;;;;;;;14.27;7.00;;;;;;;;;;4962317;28;20050;-82
2023/03/22 09:09:11;;;;;;;14.57;7.05;;;;;;;;;;4953807;28;20550;-81
2023/03/22 09:11:46;;;;;;;11.65;6.57;;;;;;;;;;4961109;28;20054;-81
2023/03/22 09:14:19;;;;;;;12.50;6.88;;;;;;;;;;4957300;28;20610;-81
2023/03/22 09:16:54;;;;;;;12.95;6.45;;;;;;;;;;4967231;28;20050;-82
2023/03/22 09:19:28;;;;;;;14.00;6.93;;;;;;;;;;4975916;28;20503;-80
2023/03/22 09:22:01;;;;;;;10.90;6.18;;;;;;;;;;4984470;28;20064;-81
2023/03/22 09:24:43;;;;;;;11.93;6.00;;;;;;;;;;4978814;28;20042;-82
2023/03/22 09:27:15;;;;;;;17.48;8.65;;;;;;;;;;4979008;28;20050;-86
2023/03/22 09:29:43;;;;;;;12.27;6.60;;;;;;;;;;4983595;28;20062;-81
2023/03/22 09:32:19;;;;;;;13.73;6.90;;;;;;;;;;4984788;28;20054;-82
2023/03/22 09:34:58;;;;;;;12.65;6.55;;;;;;;;;;4999429;28;20059;-81
2023/03/22 09:37:33;;;;;;;10.80;6.13;;;;;;;;;;4980199;28;20046;-81
2023/03/22 09:40:07;;;;;;;10.73;5.93;;;;;;;;;;4984840;28;20050;-80
2023/03/22 09:42:42;;;;;;;11.48;5.80;;;;;;;;;;4980745;28;20502;-81
2023/03/22 09:45:18;;;;;;;15.00;5.50;;;;;;;;;;4977523;28;20406;-81
2023/03/22 09:47:54;;;;;;;9.18;4.60;;;;;;;;;;4977766;28;20053;-81
2023/03/22 09:50:29;;;;;;;13.40;6.28;;;;;;;;;;4990390;28;20041;-82
2023/03/22 09:53:02;;;;;;;10.93;5.70;;;;;;;;;;4985570;28;20069;-82
2023/03/22 09:55:37;;;;;;;9.38;5.20;;;;;;;;;;4989393;28;20041;-80
2023/03/22 09:58:08;;;;;;;10.98;4.93;;;;;;;;;;4989353;28;20725;-80
2023/03/22 10:00:43;;;;;;;9.95;4.70;;;;;;;;;;4987263;28;20053;-80
2023/03/22 10:03:20;;;;;;;15.27;4.63;;;;;;;;;;4984502;28;20053;-80
2023/03/22 10:05:55;;;;;;;9.75;3.97;;;;;;;;;;4984167;28;20050;-80
2023/03/22 10:08:36;;;;;;;9.52;3.72;;;;;;;;;;4985736;28;20049;-81
2023/03/22 10:11:14;;;;;;;8.63;4.45;;;;;;;;;;4981415;28;20065;-82
2023/03/22 10:13:46;;;;;;;10.13;3.78;;;;;;;;;;4981854;28;20061;-81
2023/03/22 10:16:23;;;;;;;8.65;2.83;;;;;;;;;;4987244;28;20038;-81
2023/03/22 10:19:01;;;;;;;10.25;3.20;;;;;;;;;;4987772;28;20042;-80
2023/03/22 10:21:35;;;;;;;12.57;2.90;;;;;;;;;;4948911;28;20462;-82
2023/03/22 10:24:12;;;;;;;7.68;2.92;;;;;;;;;;4956335;28;20062;-81
2023/03/22 10:26:41;;;;;;;9.75;3.00;;;;;;;;;;4958593;28;20101;-80
2023/03/22 10:29:19;;;;;;;6.32;2.80;;;;;;;;;;4961960;28;20049;-80
2023/03/22 10:31:52;;;;;;;6.80;2.90;;;;;;;;;;4961601;28;20486;-81
2023/03/22 10:34:22;;;;;;;6.00;3.00;;;;;;;;;;4949804;28;20050;-80
2023/03/22 10:36:55;;;;;;;6.63;2.92;;;;;;;;;;4956308;28;20062;-80
2023/03/22 10:39:29;;;;;;;10.00;2.67;;;;;;;;;;4962285;28;20054;-80
2023/03/22 10:42:04;;;;;;;4.35;2.13;;;;;;;;;;4962386;28;20050;-81
2023/03/22 10:44:35;;;;;;;10.20;2.67;;;;;;;;;;4955092;28;20050;-81
2023/03/22 10:47:10;;;;;;;14.63;2.38;;;;;;;;;;4956974;28;20056;-81
2023/03/22 10:49:47;;;;;;;8.98;2.53;;;;;;;;;;4948545;28;20046;-81
2023/03/22 10:52:19;;;;;;;9.15;2.17;;;;;;;;;;4961119;28;20054;-82
2023/03/22 10:54:52;;;;;;;4.78;1.95;;;;;;;;;;4967025;28;20411;-80
2023/03/22 10:57:25;;;;;;;6.50;2.13;;;;;;;;;;4962830;28;20050;-81
2023/03/22 10:59:58;;;;;;;5.97;2.50;;;;;;;;;;4969350;28;20057;-81
2023/03/22 11:02:32;;;;;;;7.20;2.50;;;;;;;;;;4955527;28;20053;-80
2023/03/22 11:05:06;;;;;;;3.72;1.88;;;;;;;;;;4958741;28;20066;-81
2023/03/22 11:07:42;;;;;;;6.75;2.22;;;;;;;;;;4952711;28;20050;-81
2023/03/22 11:10:20;;;;;;;3.92;1.80;;;;;;;;;;4954822;28;20074;-81
2023/03/22 11:12:54;;;;;;;7.57;2.15;;;;;;;;;;4953317;28;20062;-80
2023/03/22 11:15:29;;;;;;;9.40;1.88;;;;;;;;;;4967483;28;20062;-81
2023/03/22 11:18:01;;;;;;;5.80;2.25;;;;;;;;;;4954522;28;20510;-82
2023/03/22 11:20:32;;;;;;;3.25;1.60;;;;;;;;;;4952208;28;20537;-80
2023/03/22 11:23:05;;;;;;;3.22;1.38;;;;;;;;;;4982012;28;20061;-80
2023/03/22 11:25:44;;;;;;;5.22;1.63;;;;;;;;;;4983336;28;20064;-80
2023/03/22 11:28:18;;;;;;;6.35;1.77;;;;;;;;;;4991776;28;20594;-79
2023/03/22 11:31:00;;;;;;;4.65;1.70;;;;;;;;;;4977737;28;20054;-80
2023/03/22 11:33:28;;;;;;;3.47;1.77;;;;;;;;;;4983236;28;20691;-81
2023/03/22 11:35:58;;;;;;;4.72;1.85;;;;;;;;;;4982112;28;20518;-80
2023/03/22 11:38:28;;;;;;;4.07;1.80;;;;;;;;;;5003682;28;20049;-80
2023/03/22 11:41:02;;;;;;;9.50;1.73;;;;;;;;;;4982394;28;20076;-79
2023/03/22 11:43:37;;;;;;;5.05;1.90;;;;;;;;;;4989073;28;20046;-81
2023/03/22 11:46:05;;;;;;;3.38;1.73;;;;;;;;;;4985691;28;20161;-79
2023/03/22 11:48:40;;;;;;;5.55;1.98;;;;;;;;;;4984064;28;20065;-80
2023/03/22 11:51:11;;;;;;;5.50;2.00;;;;;;;;;;4976542;28;20046;-80
2023/03/22 11:53:45;;;;;;;9.57;1.90;;;;;;;;;;4980221;28;20046;-80
2023/03/22 11:56:21;;;;;;;3.88;1.90;;;;;;;;;;4981223;28;20049;-79
2023/03/22 11:58:58;;;;;;;6.90;2.35;;;;;;;;;;4984930;28;20049;-80
2023/03/22 12:01:34;;;;;;;4.72;1.55;;;;;;;;;;4979510;28;20725;-81
2023/03/22 12:04:09;;;;;;;3.80;1.65;;;;;;;;;;4977632;28;20057;-79
2023/03/22 12:06:43;;;;;;;5.93;1.95;;;;;;;;;;4977932;28;20058;-80
2023/03/22 12:09:21;;;;;;;5.28;1.90;;;;;;;;;;4979698;28;20058;-79
2023/03/22 12:11:56;;;;;;;6.47;1.75;;;;;;;;;;4977272;28;20062;-80
2023/03/22 12:14:29;;;;;;;6.60;1.90;;;;;;;;;;4979234;28;20577;-80
2023/03/22 12:17:06;;;;;;;5.00;2.10;;;;;;;;;;4983643;28;20050;-80
2023/03/22 12:19:46;;;;;;;7.43;2.28;;;;;;;;;;4982385;28;20046;-79
2023/03/22 12:22:23;;;;;;;8.48;2.72;;;;;;;;;;4961087;28;20058;-80
2023/03/22 12:24:50;;;;;;;7.63;2.47;;;;;;;;;;4952371;28;20069;-80
2023/03/22 12:27:20;;;;;;;6.90;2.25;;;;;;;;;;4951126;28;20058;-81
2023/03/22 12:29:52;;;;;;;5.35;2.00;;;;;;;;;;4979360;28;20061;-80
2023/03/22 12:32:26;;;;;;;4.30;2.10;;;;;;;;;;4960023;28;20846;-80
2023/03/22 12:35:00;;;;;;;4.50;2.25;;;;;;;;;;4985006;28;20046;-80
2023/03/22 12:37:35;;;;;;;7.25;2.88;;;;;;;;;;4974006;28;20726;-80
2023/03/22 12:40:05;;;;;;;9.00;2.42;;;;;;;;;;4958780;28;20054;-80
2023/03/22 12:42:41;;;;;;;10.40;3.13;;;;;;;;;;4958981;28;20123;-80
2023/03/22 12:45:16;;;;;;;6.50;2.63;;;;;;;;;;4957295;28;20053;-80
2023/03/22 12:47:51;;;;;;;5.28;2.70;;;;;;;;;;4952794;28;20069;-80
2023/03/22 12:50:20;;;;;;;7.43;3.05;;;;;;;;;;4956118;28;20065;-80
2023/03/22 12:52:55;;;;;;;6.97;2.90;;;;;;;;;;4955334;28;20574;-80
2023/03/22 12:55:30;;;;;;;6.80;2.60;;;;;;;;;;4970032;28;20062;-80
2023/03/22 12:57:58;;;;;;;9.27;2.72;;;;;;;;;;4962642;28;20066;-80
2023/03/22 13:00:27;;;;;;;5.85;2.58;;;;;;;;;;4953863;28;20055;-79
2023/03/22 13:02:58;;;;;;;5.50;2.65;;;;;;;;;;4952724;28;20054;-80
2023/03/22 13:05:33;;;;;;;7.00;3.45;;;;;;;;;;4954519;28;20567;-80
2023/03/22 13:08:09;;;;;;;6.97;3.58;;;;;;;;;;4954374;28;20066;-80
2023/03/22 13:10:42;;;;;;;6.18;3.33;;;;;;;;;;4960805;28;20103;-80
2023/03/22 13:13:16;;;;;;;8.25;3.60;;;;;;;;;;4957748;28;20053;-80
2023/03/22 13:16:00;;;;;;;8.20;3.63;;;;;;;;;;4961392;28;20051;-80
2023/03/22 13:18:41;;;;;;;10.25;3.35;;;;;;;;;;4956802;28;20065;-81
2023/03/22 13:21:13;;;;;;;7.50;3.53;;;;;;;;;;4953677;28;20058;-81
2023/03/22 13:23:54;;;;;;;9.23;3.30;;;;;;;;;;4980823;28;20050;-80
2023/03/22 13:26:36;;;;;;;5.60;3.10;;;;;;;;;;4988200;28;20049;-79
2023/03/22 13:29:11;;;;;;;9.10;3.38;;;;;;;;;;4985863;28;20064;-79
2023/03/22 13:31:44;;;;;;;7.40;3.47;;;;;;;;;;4981662;28;20050;-81
2023/03/22 13:34:14;;;;;;;6.18;3.40;;;;;;;;;;4983511;28;20066;-80
2023/03/22 13:36:48;;;;;;;7.78;4.00;;;;;;;;;;4988859;28;20041;-81
2023/03/22 13:39:24;;;;;;;8.52;3.85;;;;;;;;;;4980629;28;20057;-81
2023/03/22 13:42:03;;;;;;;8.18;3.92;;;;;;;;;;4981586;28;20057;-81
2023/03/22 13:44:36;;;;;;;6.53;3.95;;;;;;;;;;4980924;28;20064;-82
2023/03/22 13:47:28;;;;;;;8.00;3.72;;;;;;;;;;4984156;28;20057;-81
2023/03/22 13:50:08;;;;;;;5.72;3.03;;;;;;;;;;4981037;28;20053;-82
2023/03/22 13:52:42;;;;;;;6.22;3.05;;;;;;;;;;4986550;28;20049;-81
2023/03/22 13:55:31;;;;;;;6.13;2.60;;;;;;;;;;4987387;28;20061;-80
2023/03/22 13:58:00;;;;;;;4.85;2.38;;;;;;;;;;4983476;28;20069;-81
2023/03/22 14:00:48;;;;;;;4.68;2.53;;;;;;;;;;4983502;28;20526;-82
2023/03/22 14:03:27;;;;;;;4.13;2.10;;;;;;;;;;4978365;28;20061;-82
2023/03/22 14:06:01;;;;;;;9.00;2.85;;;;;;;;;;4976857;28;20061;-82
2023/03/22 14:08:35;;;;;;;11.65;2.70;;;;;;;;;;4980539;28;20057;-81
2023/03/22 14:11:07;;;;;;;4.32;2.40;;;;;;;;;;4977016;28;20060;-82
2023/03/22 14:13:40;;;;;;;8.43;2.50;;;;;;;;;;4981077;28;20058;-81
2023/03/22 14:16:09;;;;;;;3.92;2.20;;;;;;;;;;4981031;28;21003;-81
2023/03/22 14:18:39;;;;;;;6.45;2.65;;;;;;;;;;4982714;28;20054;-81
2023/03/22 14:21:14;;;;;;;7.03;2.50;;;;;;;;;;4970084;28;20049;-81
2023/03/22 14:23:48;;;;;;;7.30;2.80;;;;;;;;;;4982333;28;20053;-81
2023/03/22 14:26:16;;;;;;;5.90;2.60;;;;;;;;;;4987093;28;20506;-81
2023/03/22 14:28:44;;;;;;;6.93;2.35;;;;;;;;;;4982762;28;20045;-81
2023/03/22 14:31:17;;;;;;;6.65;3.00;;;;;;;;;;4983092;28;20937;-82
2023/03/22 14:33:44;;;;;;;6.20;2.80;;;;;;;;;;4981588;28;20054;-81
2023/03/22 14:36:12;;;;;;;6.35;2.80;;;;;;;;;;4984275;28;20057;-82
2023/03/22 14:38:41;;;;;;;6.30;2.90;;;;;;;;;;4988459;28;20058;-80
2023/03/22 14:41:10;;;;;;;7.30;3.13;;;;;;;;;;4990580;28;20061;-81
2023/03/22 14:43:38;;;;;;;5.88;2.95;;;;;;;;;;4983489;28;20057;-81
2023/03/22 14:46:09;;;;;;;5.53;2.70;;;;;;;;;;4988229;28;20065;-80
2023/03/22 14:48:38;;;;;;;8.00;3.20;;;;;;;;;;4988518;28;20046;-80
2023/03/22 14:51:08;;;;;;;6.13;3.20;;;;;;;;;;4966843;28;20620;-81
2023/03/22 14:53:35;;;;;;;5.57;2.72;;;;;;;;;;4977977;28;20356;-82
2023/03/22 14:56:04;;;;;;;7.57;3.30;;;;;;;;;;4979285;28;20410;-81
2023/03/22 14:58:33;;;;;;;7.72;3.53;;;;;;;;;;4969434;28;20058;-81
2023/03/22 15:01:00;;;;;;;7.57;3.90;;;;;;;;;;4988963;28;20045;-80
2023/03/22 15:03:30;;;;;;;10.70;3.85;;;;;;;;;;4991266;28;20057;-80
2023/03/22 15:05:58;;;;;;;6.85;3.70;;;;;;;;;;4979749;28;20054;-81
2023/03/22 15:08:25;;;;;;;;;;;;;;;;;;4970961;28;20057;-81
2023/03/22 15:10:55;;;;;;;6.63;3.30;;;;;;;;;;4983553;28;19929;-80
2023/03/22 15:13:25;;;;;;;5.82;3.30;;;;;;;;;;4983008;28;20058;-81
2023/03/22 15:15:54;;;;;;;7.63;4.15;;;;;;;;;;4976538;28;20096;-80
2023/03/22 15:18:21;;;;;;;9.68;3.85;;;;;;;;;;4983415;28;20065;-81
2023/03/22 15:20:51;;;;;;;6.30;3.67;;;;;;;;;;4975401;28;20569;-80
2023/03/22 15:23:19;;;;;;;8.52;3.67;;;;;;;;;;4962801;28;20045;-81